Time;durP1;ratioP1;P1;durP2;ratioP2;P2;SDS_P1;SDS_P2;PMS_P1;PMS_P2;Temp;Humidity;BMP_temperature;BMP_pressure;BME280_temperature;BME280_humidity;BME280_pressure;Samples;Min_cycle;Max_cycle;Signal;HPM_P1;HPM_P2
2024/03/01 00:00:12;;;;;;;13.77;4.57;;;;;;;;;;4414851;32;318138;-65
2024/03/01 00:02:39;;;;;;;9.57;5.60;;;;;;;;;;4398343;32;419236;-65
2024/03/01 00:05:06;;;;;;;9.30;4.27;;;;;;;;;;4413190;32;317243;-66
2024/03/01 00:07:35;;;;;;;8.83;5.20;;;;;;;;;;4403636;32;317302;-66
2024/03/01 00:10:01;;;;;;;9.93;4.80;;;;;;;;;;4414693;32;317274;-68
2024/03/01 00:12:28;;;;;;;9.47;4.60;;;;;;;;;;4400813;32;316664;-67
2024/03/01 00:14:58;;;;;;;6.97;4.30;;;;;;;;;;4414029;32;333589;-70
2024/03/01 00:17:24;;;;;;;8.93;4.50;;;;;;;;;;4403233;32;317410;-66
2024/03/01 00:19:51;;;;;;;6.63;4.10;;;;;;;;;;4412846;32;317441;-66
2024/03/01 00:22:20;;;;;;;8.60;4.77;;;;;;;;;;4404284;32;317194;-67
2024/03/01 00:24:48;;;;;;;9.10;4.43;;;;;;;;;;4411600;32;331487;-67
2024/03/01 00:27:15;;;;;;;16.73;5.23;;;;;;;;;;4401982;32;317330;-69
2024/03/01 00:29:42;;;;;;;13.70;5.07;;;;;;;;;;4414103;32;318236;-67
2024/03/01 00:32:08;;;;;;;9.93;5.67;;;;;;;;;;4414306;32;318342;-67
2024/03/01 00:34:35;;;;;;;10.77;4.27;;;;;;;;;;4399919;32;317268;-67
2024/03/01 00:37:02;;;;;;;9.90;4.63;;;;;;;;;;4414198;32;317781;-65
2024/03/01 00:39:30;;;;;;;14.73;5.50;;;;;;;;;;4402638;32;317133;-68
2024/03/01 00:41:58;;;;;;;15.53;5.53;;;;;;;;;;4413200;32;318998;-67
2024/03/01 00:44:25;;;;;;;7.67;4.43;;;;;;;;;;4402606;32;341162;-66
2024/03/01 00:46:52;;;;;;;11.60;5.20;;;;;;;;;;4412126;32;317244;-67
2024/03/01 00:49:19;;;;;;;8.50;4.97;;;;;;;;;;4403210;32;318356;-67
2024/03/01 00:51:45;;;;;;;14.93;5.33;;;;;;;;;;4414076;32;316395;-68
2024/03/01 00:54:12;;;;;;;5.53;4.10;;;;;;;;;;4412762;32;318347;-66
2024/03/01 00:56:39;;;;;;;9.70;5.07;;;;;;;;;;4397820;32;417842;-67
2024/03/01 00:59:07;;;;;;;7.97;4.77;;;;;;;;;;4414215;32;317362;-66
2024/03/01 01:01:34;;;;;;;24.77;4.70;;;;;;;;;;4404364;32;317041;-66
2024/03/01 01:04:00;;;;;;;12.70;4.77;;;;;;;;;;4412304;32;318216;-70
2024/03/01 01:06:27;;;;;;;8.03;5.23;;;;;;;;;;4402693;32;318634;-67
2024/03/01 01:08:54;;;;;;;7.93;4.50;;;;;;;;;;4411252;32;321942;-67
2024/03/01 01:11:20;;;;;;;8.10;4.60;;;;;;;;;;4403707;32;317269;-66
2024/03/01 01:13:47;;;;;;;9.60;5.00;;;;;;;;;;4412182;32;317341;-67
2024/03/01 01:16:15;;;;;;;8.30;4.83;;;;;;;;;;4405756;32;317247;-67
2024/03/01 01:18:42;;;;;;;13.03;6.00;;;;;;;;;;4410829;32;317247;-67
2024/03/01 01:21:09;;;;;;;11.97;5.20;;;;;;;;;;4413230;32;318296;-66
2024/03/01 01:23:36;;;;;;;11.90;5.60;;;;;;;;;;4403707;32;318277;-67
2024/03/01 01:26:02;;;;;;;11.20;5.10;;;;;;;;;;4413614;32;318414;-67
2024/03/01 01:28:29;;;;;;;11.47;4.80;;;;;;;;;;4402156;32;318765;-68
2024/03/01 01:30:56;;;;;;;10.47;5.13;;;;;;;;;;4411203;32;318192;-69
2024/03/01 01:33:24;;;;;;;11.70;5.77;;;;;;;;;;4403361;32;318393;-67
2024/03/01 01:35:51;;;;;;;6.73;5.43;;;;;;;;;;4413437;32;318318;-67
2024/03/01 01:38:19;;;;;;;7.37;4.73;;;;;;;;;;4402173;32;317200;-66
2024/03/01 01:40:46;;;;;;;13.20;4.83;;;;;;;;;;4410029;32;349334;-71
2024/03/01 01:43:13;;;;;;;9.60;5.07;;;;;;;;;;4411315;32;318495;-67
2024/03/01 01:45:40;;;;;;;9.03;5.40;;;;;;;;;;4412596;32;317385;-67
2024/03/01 01:48:08;;;;;;;9.07;5.07;;;;;;;;;;4411948;32;325859;-67
2024/03/01 01:50:37;;;;;;;11.17;6.00;;;;;;;;;;4399859;32;317359;-67
2024/03/01 01:53:04;;;;;;;8.17;5.07;;;;;;;;;;4411362;32;318737;-67
2024/03/01 01:55:32;;;;;;;10.57;6.03;;;;;;;;;;4401683;32;334375;-67
2024/03/01 01:57:59;;;;;;;13.03;7.17;;;;;;;;;;4411471;32;318328;-70
2024/03/01 02:00:26;;;;;;;14.70;6.97;;;;;;;;;;4401025;32;318421;-69
2024/03/01 02:02:54;;;;;;;11.90;6.73;;;;;;;;;;4413128;32;318620;-67
2024/03/01 02:05:21;;;;;;;11.33;6.43;;;;;;;;;;4402597;32;318324;-68
2024/03/01 02:07:49;;;;;;;22.70;7.63;;;;;;;;;;4411746;32;318359;-67
2024/03/01 02:10:17;;;;;;;11.30;6.55;;;;;;;;;;4402940;32;318314;-67
2024/03/01 02:12:57;;;;;;;14.47;6.63;;;;;;;;;;4409450;32;318076;-67
2024/03/01 02:15:25;;;;;;;6.97;5.40;;;;;;;;;;4402035;32;318355;-66
2024/03/01 02:17:52;;;;;;;9.03;5.13;;;;;;;;;;4413166;32;316607;-68
2024/03/01 02:20:20;;;;;;;15.23;6.13;;;;;;;;;;4403569;32;317276;-67
2024/03/01 02:22:50;;;;;;;10.23;5.70;;;;;;;;;;4409824;32;318314;-66
2024/03/01 02:25:19;;;;;;;16.33;6.87;;;;;;;;;;4402045;32;318338;-66
2024/03/01 02:27:47;;;;;;;12.30;5.93;;;;;;;;;;4412643;32;318669;-66
2024/03/01 02:30:14;;;;;;;9.57;5.80;;;;;;;;;;4406499;32;318200;-69
2024/03/01 02:32:41;;;;;;;11.70;6.50;;;;;;;;;;4410819;32;317427;-66
2024/03/01 02:35:08;;;;;;;13.62;7.10;;;;;;;;;;4412909;32;318428;-66
2024/03/01 02:37:35;;;;;;;15.07;6.17;;;;;;;;;;4403292;32;318093;-67
2024/03/01 02:40:03;;;;;;;13.97;6.07;;;;;;;;;;4413917;32;318410;-67
2024/03/01 02:42:33;;;;;;;11.83;7.40;;;;;;;;;;4397942;32;318309;-68
2024/03/01 02:45:03;;;;;;;13.03;6.70;;;;;;;;;;4413326;32;318363;-66
2024/03/01 02:47:30;;;;;;;10.10;6.23;;;;;;;;;;4402950;32;318113;-71
2024/03/01 02:49:57;;;;;;;14.10;6.90;;;;;;;;;;4411143;32;318319;-67
2024/03/01 02:52:24;;;;;;;14.87;6.80;;;;;;;;;;4402363;32;318302;-67
2024/03/01 02:54:51;;;;;;;13.27;7.53;;;;;;;;;;4410500;32;318407;-67
2024/03/01 02:57:17;;;;;;;13.30;6.20;;;;;;;;;;4401476;32;318398;-66
2024/03/01 02:59:45;;;;;;;15.47;7.30;;;;;;;;;;4411035;32;318152;-67
2024/03/01 03:02:12;;;;;;;11.10;6.17;;;;;;;;;;4411549;32;317704;-69
2024/03/01 03:04:39;;;;;;;10.80;6.07;;;;;;;;;;4395566;32;419147;-67
2024/03/01 03:07:06;;;;;;;11.83;6.10;;;;;;;;;;4412212;32;318331;-67
2024/03/01 03:09:32;;;;;;;18.97;6.50;;;;;;;;;;4402293;32;318417;-70
2024/03/01 03:11:59;;;;;;;12.47;6.70;;;;;;;;;;4413405;32;318387;-67
2024/03/01 03:14:26;;;;;;;14.33;7.20;;;;;;;;;;4405043;32;318424;-67
2024/03/01 03:16:55;;;;;;;12.37;8.33;;;;;;;;;;4413646;32;318521;-66
2024/03/01 03:19:23;;;;;;;12.17;7.63;;;;;;;;;;4405790;32;318445;-68
2024/03/01 03:21:49;;;;;;;13.13;7.03;;;;;;;;;;4414102;32;317764;-67
2024/03/01 03:24:16;;;;;;;13.90;7.70;;;;;;;;;;4402635;32;345458;-67
2024/03/01 03:26:43;;;;;;;12.93;8.03;;;;;;;;;;4412576;32;317708;-67
2024/03/01 03:29:10;;;;;;;14.57;8.80;;;;;;;;;;4415076;32;317812;-67
2024/03/01 03:31:36;;;;;;;15.10;8.93;;;;;;;;;;4403145;32;318368;-68
2024/03/01 03:34:05;;;;;;;17.47;8.87;;;;;;;;;;4414053;32;318479;-66
2024/03/01 03:36:32;;;;;;;17.83;9.67;;;;;;;;;;4402726;32;318359;-71
2024/03/01 03:38:58;;;;;;;18.70;10.13;;;;;;;;;;4413797;32;318390;-67
2024/03/01 03:41:25;;;;;;;24.27;11.83;;;;;;;;;;4402876;32;319418;-69
2024/03/01 03:43:53;;;;;;;17.53;10.77;;;;;;;;;;4413783;32;352385;-70
2024/03/01 03:46:19;;;;;;;20.07;12.50;;;;;;;;;;4404136;32;319396;-67
2024/03/01 03:48:46;;;;;;;26.13;12.10;;;;;;;;;;4411664;32;319549;-66
2024/03/01 03:51:23;;;;;;;19.27;10.97;;;;;;;;;;4414729;32;319464;-69
2024/03/01 03:53:50;;;;;;;23.03;10.60;;;;;;;;;;4402157;32;420155;-69
2024/03/01 03:56:16;;;;;;;29.40;11.17;;;;;;;;;;4403709;32;319199;-67
2024/03/01 03:58:43;;;;;;;28.03;10.60;;;;;;;;;;4410795;32;319698;-66
2024/03/01 04:01:10;;;;;;;20.60;11.53;;;;;;;;;;4415012;32;319305;-67
2024/03/01 04:03:37;;;;;;;19.10;10.13;;;;;;;;;;4403500;32;319606;-67
2024/03/01 04:06:06;;;;;;;19.17;10.00;;;;;;;;;;4414249;32;319344;-67
2024/03/01 04:08:34;;;;;;;16.00;9.20;;;;;;;;;;4402441;32;319329;-67
2024/03/01 04:11:05;;;;;;;19.00;9.50;;;;;;;;;;4414455;32;318435;-66
2024/03/01 04:13:32;;;;;;;19.77;8.63;;;;;;;;;;4404609;32;318250;-67
2024/03/01 04:15:59;;;;;;;20.57;9.93;;;;;;;;;;4413329;32;317621;-70
2024/03/01 04:18:27;;;;;;;12.50;9.40;;;;;;;;;;4403035;32;318414;-68
2024/03/01 04:20:55;;;;;;;18.40;10.07;;;;;;;;;;4413154;32;324948;-66
2024/03/01 04:23:22;;;;;;;20.40;9.50;;;;;;;;;;4403716;32;319348;-68
2024/03/01 04:25:51;;;;;;;19.97;9.10;;;;;;;;;;4414493;32;318260;-66
2024/03/01 04:28:18;;;;;;;22.67;9.83;;;;;;;;;;4404495;32;318423;-68
2024/03/01 04:30:45;;;;;;;15.50;9.83;;;;;;;;;;4412466;32;318118;-66
2024/03/01 04:33:12;;;;;;;23.97;8.93;;;;;;;;;;4414054;32;318268;-67
2024/03/01 04:35:39;;;;;;;12.33;8.43;;;;;;;;;;4401554;32;417563;-67
2024/03/01 04:38:08;;;;;;;19.13;9.00;;;;;;;;;;4414285;32;318604;-66
2024/03/01 04:40:36;;;;;;;11.90;8.17;;;;;;;;;;4401333;32;340855;-67
2024/03/01 04:43:04;;;;;;;9.23;5.60;;;;;;;;;;4414134;32;318781;-66
2024/03/01 04:45:31;;;;;;;10.40;4.20;;;;;;;;;;4404493;32;317828;-66
2024/03/01 04:47:58;;;;;;;11.83;4.97;;;;;;;;;;4413672;32;318495;-70
2024/03/01 04:50:25;;;;;;;6.57;5.20;;;;;;;;;;4404124;32;318259;-70
2024/03/01 04:52:51;;;;;;;11.90;4.67;;;;;;;;;;4410436;32;317409;-66
2024/03/01 04:55:18;;;;;;;7.87;4.67;;;;;;;;;;4403585;32;336103;-67
2024/03/01 04:57:45;;;;;;;10.83;5.73;;;;;;;;;;4414075;32;317330;-67
2024/03/01 05:00:15;;;;;;;6.87;4.37;;;;;;;;;;4411873;32;318384;-69
2024/03/01 05:02:43;;;;;;;8.27;5.53;;;;;;;;;;4399037;32;418195;-66
2024/03/01 05:05:10;;;;;;;12.67;4.50;;;;;;;;;;4413069;32;317371;-67
2024/03/01 05:07:37;;;;;;;7.13;4.00;;;;;;;;;;4403769;32;318594;-67
2024/03/01 05:10:08;;;;;;;16.57;4.77;;;;;;;;;;4413983;32;317553;-67
2024/03/01 05:12:36;;;;;;;6.87;4.70;;;;;;;;;;4401697;32;318415;-66
2024/03/01 05:15:04;;;;;;;8.00;5.07;;;;;;;;;;4413724;32;317591;-66
2024/03/01 05:17:32;;;;;;;7.57;4.53;;;;;;;;;;4402541;32;317913;-67
2024/03/01 05:19:59;;;;;;;8.67;4.53;;;;;;;;;;4413510;32;316801;-67
2024/03/01 05:22:26;;;;;;;7.03;4.33;;;;;;;;;;4395915;32;317359;-67
2024/03/01 05:24:52;;;;;;;12.97;4.90;;;;;;;;;;4422647;32;317538;-66
2024/03/01 05:27:19;;;;;;;6.83;4.30;;;;;;;;;;4401672;32;352108;-66
2024/03/01 05:29:46;;;;;;;8.00;4.90;;;;;;;;;;4413335;32;317544;-69
2024/03/01 05:32:14;;;;;;;7.83;4.50;;;;;;;;;;4411947;32;317399;-69
2024/03/01 05:34:44;;;;;;;7.43;4.30;;;;;;;;;;4398039;32;416500;-67
2024/03/01 05:37:12;;;;;;;14.67;6.20;;;;;;;;;;4412135;32;316949;-67
2024/03/01 05:39:39;;;;;;;12.47;5.47;;;;;;;;;;4398897;32;419192;-65
2024/03/01 05:42:07;;;;;;;19.80;5.17;;;;;;;;;;4412039;32;317474;-66
2024/03/01 05:44:33;;;;;;;7.93;5.03;;;;;;;;;;4399680;32;318543;-67
2024/03/01 05:47:00;;;;;;;10.30;4.47;;;;;;;;;;4412673;32;317381;-69
2024/03/01 05:49:27;;;;;;;9.73;4.47;;;;;;;;;;4402490;32;318394;-66
2024/03/01 05:51:55;;;;;;;18.97;5.50;;;;;;;;;;4413091;32;317403;-67
2024/03/01 05:54:22;;;;;;;12.03;4.77;;;;;;;;;;4402787;32;318485;-66
2024/03/01 05:56:49;;;;;;;12.13;3.33;;;;;;;;;;4411221;32;318360;-70
2024/03/01 05:59:15;;;;;;;13.37;5.20;;;;;;;;;;4402527;32;318991;-69
2024/03/01 06:01:44;;;;;;;8.83;4.77;;;;;;;;;;4412625;32;318422;-68
2024/03/01 06:04:11;;;;;;;14.10;6.40;;;;;;;;;;4410119;32;316796;-68
2024/03/01 06:06:37;;;;;;;13.40;5.27;;;;;;;;;;4405539;32;318404;-68
2024/03/01 06:09:05;;;;;;;15.93;6.77;;;;;;;;;;4412315;32;318590;-67
2024/03/01 06:11:32;;;;;;;9.87;5.27;;;;;;;;;;4402942;32;318606;-67
2024/03/01 06:13:59;;;;;;;11.43;7.07;;;;;;;;;;4412833;32;317835;-67
2024/03/01 06:16:26;;;;;;;10.70;6.23;;;;;;;;;;4401648;32;318479;-68
2024/03/01 06:18:52;;;;;;;12.63;6.03;;;;;;;;;;4408107;32;351965;-67
2024/03/01 06:21:22;;;;;;;12.10;7.17;;;;;;;;;;4402243;32;317925;-67
2024/03/01 06:23:49;;;;;;;11.03;5.60;;;;;;;;;;4411490;32;318301;-67
2024/03/01 06:26:17;;;;;;;12.83;6.43;;;;;;;;;;4401952;32;318386;-68
2024/03/01 06:28:44;;;;;;;14.85;5.32;;;;;;;;;;4410462;32;318505;-67
2024/03/01 06:31:11;;;;;;;12.37;5.70;;;;;;;;;;4411134;32;318675;-68
2024/03/01 06:33:40;;;;;;;11.53;5.60;;;;;;;;;;4400545;32;318333;-67
2024/03/01 06:36:08;;;;;;;26.80;7.77;;;;;;;;;;4412535;32;318442;-69
2024/03/01 06:38:35;;;;;;;16.63;4.90;;;;;;;;;;4397997;32;331449;-67
2024/03/01 06:41:03;;;;;;;25.83;13.27;;;;;;;;;;4410969;32;317879;-66
2024/03/01 06:43:31;;;;;;;9.87;5.67;;;;;;;;;;4400848;32;319401;-69
2024/03/01 06:45:58;;;;;;;8.87;4.03;;;;;;;;;;4410496;32;317263;-67
2024/03/01 06:48:25;;;;;;;9.77;4.93;;;;;;;;;;4402290;32;317430;-66
2024/03/01 06:50:52;;;;;;;19.97;7.53;;;;;;;;;;4409781;32;317397;-67
2024/03/01 06:53:18;;;;;;;29.30;13.47;;;;;;;;;;4412003;32;318403;-67
2024/03/01 06:55:45;;;;;;;19.77;9.90;;;;;;;;;;4398299;32;420612;-67
2024/03/01 06:58:14;;;;;;;19.73;9.93;;;;;;;;;;4410493;32;317419;-68
2024/03/01 07:00:46;;;;;;;15.65;9.18;;;;;;;;;;4398131;32;318301;-72
2024/03/01 07:03:14;;;;;;;21.73;10.00;;;;;;;;;;4409502;32;318057;-67
2024/03/01 07:05:41;;;;;;;14.43;8.50;;;;;;;;;;4402106;32;319317;-65
2024/03/01 07:08:08;;;;;;;19.70;8.50;;;;;;;;;;4410054;32;318308;-67
2024/03/01 07:10:35;;;;;;;28.57;10.73;;;;;;;;;;4399947;32;318443;-66
2024/03/01 07:13:02;;;;;;;25.00;9.48;;;;;;;;;;4411950;32;318686;-66
2024/03/01 07:15:29;;;;;;;16.27;9.47;;;;;;;;;;4401563;32;318593;-69
2024/03/01 07:17:57;;;;;;;28.70;10.73;;;;;;;;;;4412004;32;318422;-68
2024/03/01 07:20:24;;;;;;;19.73;10.47;;;;;;;;;;4400368;32;319398;-69
2024/03/01 07:22:51;;;;;;;20.07;11.27;;;;;;;;;;4409798;32;318646;-68
2024/03/01 07:25:18;;;;;;;17.50;11.03;;;;;;;;;;4412125;32;319210;-69
2024/03/01 07:27:45;;;;;;;19.33;11.30;;;;;;;;;;4401918;32;319249;-68
2024/03/01 07:30:12;;;;;;;21.27;8.80;;;;;;;;;;4411967;32;319080;-67
2024/03/01 07:32:41;;;;;;;19.73;9.83;;;;;;;;;;4398472;32;321932;-69
2024/03/01 07:35:09;;;;;;;25.83;10.77;;;;;;;;;;4412132;32;318078;-67
2024/03/01 07:37:37;;;;;;;26.40;11.43;;;;;;;;;;4400953;32;319501;-67
2024/03/01 07:40:05;;;;;;;23.77;10.60;;;;;;;;;;4410784;32;343810;-68
2024/03/01 07:42:32;;;;;;;23.33;14.10;;;;;;;;;;4401899;32;319136;-67
2024/03/01 07:44:59;;;;;;;47.77;24.50;;;;;;;;;;4410135;32;319411;-70
2024/03/01 07:47:29;;;;;;;38.33;19.23;;;;;;;;;;4402040;32;319251;-68
2024/03/01 07:49:56;;;;;;;21.92;12.95;;;;;;;;;;4411579;32;319267;-68
2024/03/01 07:52:27;;;;;;;23.80;11.67;;;;;;;;;;4401757;32;319305;-67
2024/03/01 07:54:54;;;;;;;22.10;11.60;;;;;;;;;;4409633;32;318807;-67
2024/03/01 07:57:20;;;;;;;31.60;15.77;;;;;;;;;;4401813;32;319413;-70
2024/03/01 07:59:47;;;;;;;38.30;17.60;;;;;;;;;;4413338;32;318739;-67
2024/03/01 08:02:14;;;;;;;27.80;13.67;;;;;;;;;;4414377;32;319411;-67
2024/03/01 08:04:41;;;;;;;23.07;13.73;;;;;;;;;;4400766;32;318746;-67
2024/03/01 08:07:08;;;;;;;23.47;11.57;;;;;;;;;;4412476;32;348174;-69
2024/03/01 08:09:40;;;;;;;26.60;13.73;;;;;;;;;;4403883;32;319447;-69
2024/03/01 08:12:10;;;;;;;23.70;14.67;;;;;;;;;;4414641;32;318729;-67
2024/03/01 08:14:37;;;;;;;28.57;14.13;;;;;;;;;;4400757;32;319364;-69
2024/03/01 08:17:06;;;;;;;26.63;12.50;;;;;;;;;;4413765;32;318621;-69
2024/03/01 08:19:35;;;;;;;28.30;16.60;;;;;;;;;;4404251;32;320119;-67
2024/03/01 08:22:09;;;;;;;26.55;13.80;;;;;;;;;;4413025;32;319372;-67
2024/03/01 08:24:38;;;;;;;20.13;12.43;;;;;;;;;;4401359;32;319398;-67
2024/03/01 08:27:06;;;;;;;22.58;13.02;;;;;;;;;;4414236;32;319592;-66
2024/03/01 08:29:34;;;;;;;26.93;15.60;;;;;;;;;;4402734;32;319476;-68
2024/03/01 08:32:01;;;;;;;32.93;16.33;;;;;;;;;;4412916;32;323550;-67
2024/03/01 08:34:38;;;;;;;25.95;15.75;;;;;;;;;;4404212;32;319199;-67
2024/03/01 08:37:06;;;;;;;30.20;16.48;;;;;;;;;;4414393;32;318594;-68
2024/03/01 08:39:33;;;;;;;29.37;14.23;;;;;;;;;;4403277;32;320229;-67
2024/03/01 08:42:04;;;;;;;35.17;17.30;;;;;;;;;;4412041;32;356870;-67
2024/03/01 08:44:54;;;;;;;34.77;16.80;;;;;;;;;;4403942;32;319301;-69
2024/03/01 08:47:25;;;;;;;29.10;14.20;;;;;;;;;;4400440;32;356181;-67
2024/03/01 08:50:35;;;;;;;33.58;18.70;;;;;;;;;;4412714;32;319184;-67
2024/03/01 08:53:02;;;;;;;36.70;17.13;;;;;;;;;;4386096;32;419775;-69
2024/03/01 08:55:45;;;;;;;27.97;14.27;;;;;;;;;;4388296;32;319381;-67
2024/03/01 08:58:20;;;;;;;24.17;11.43;;;;;;;;;;4394227;32;347905;-68
2024/03/01 09:00:49;;;;;;;13.60;8.57;;;;;;;;;;4398140;32;419280;-67
2024/03/01 09:03:20;;;;;;;23.67;9.52;;;;;;;;;;4411880;32;336308;-68
2024/03/01 09:05:47;;;;;;;14.80;5.75;;;;;;;;;;4399277;32;417695;-68
2024/03/01 09:08:19;;;;;;;8.70;5.43;;;;;;;;;;4413644;32;318477;-68
2024/03/01 09:10:46;;;;;;;9.83;5.97;;;;;;;;;;4401854;32;317529;-70
2024/03/01 09:13:18;;;;;;;9.97;4.83;;;;;;;;;;4411927;32;317315;-68
2024/03/01 09:15:46;;;;;;;10.53;5.77;;;;;;;;;;4402827;32;317534;-67
2024/03/01 09:18:37;;;;;;;9.63;4.33;;;;;;;;;;4413258;32;318059;-68
2024/03/01 09:21:04;;;;;;;7.37;4.50;;;;;;;;;;4399354;32;417513;-70
2024/03/01 09:23:30;;;;;;;9.93;4.60;;;;;;;;;;4402651;32;317450;-68
2024/03/01 09:26:02;;;;;;;7.80;4.37;;;;;;;;;;4413793;32;317508;-69
2024/03/01 09:28:30;;;;;;;13.68;4.22;;;;;;;;;;4403137;32;317608;-68
2024/03/01 09:30:57;;;;;;;13.00;5.20;;;;;;;;;;4409658;32;344148;-67
2024/03/01 09:33:25;;;;;;;7.85;4.05;;;;;;;;;;4403341;32;318511;-68
2024/03/01 09:35:52;;;;;;;10.32;4.50;;;;;;;;;;4413150;32;317461;-67
2024/03/01 09:38:21;;;;;;;11.77;3.67;;;;;;;;;;4411864;32;317778;-67
2024/03/01 09:41:27;;;;;;;11.15;4.72;;;;;;;;;;4398095;32;417602;-69
2024/03/01 09:44:05;;;;;;;11.20;4.32;;;;;;;;;;4352197;32;419861;-68
2024/03/01 09:46:43;;;;;;;7.87;4.50;;;;;;;;;;4400967;32;318484;-67
2024/03/01 09:49:18;;;;;;;8.98;4.18;;;;;;;;;;4412947;32;317652;-68
2024/03/01 09:51:56;;;;;;;6.75;4.32;;;;;;;;;;4402758;32;345853;-68
2024/03/01 09:54:31;;;;;;;5.60;3.60;;;;;;;;;;4403440;32;317561;-68
2024/03/01 09:57:10;;;;;;;6.93;4.87;;;;;;;;;;4412974;32;317586;-67
2024/03/01 09:59:46;;;;;;;8.95;4.68;;;;;;;;;;4402975;32;317903;-66
2024/03/01 10:02:25;;;;;;;8.37;4.93;;;;;;;;;;4413074;32;317271;-66
2024/03/01 10:05:07;;;;;;;7.47;4.10;;;;;;;;;;4398044;32;416081;-67
2024/03/01 10:07:39;;;;;;;16.03;5.40;;;;;;;;;;4401814;32;317996;-68
2024/03/01 10:10:27;;;;;;;9.77;4.97;;;;;;;;;;4411742;32;318467;-69
2024/03/01 10:12:59;;;;;;;7.20;4.20;;;;;;;;;;4397066;32;417601;-67
2024/03/01 10:15:40;;;;;;;5.68;4.80;;;;;;;;;;4402732;32;317590;-68
2024/03/01 10:18:26;;;;;;;6.90;4.20;;;;;;;;;;4413050;32;317537;-68
2024/03/01 10:21:01;;;;;;;12.48;4.93;;;;;;;;;;4396517;32;418918;-70
2024/03/01 10:23:43;;;;;;;14.30;4.97;;;;;;;;;;4401248;32;318609;-67
2024/03/01 10:26:13;;;;;;;13.03;5.07;;;;;;;;;;4411356;32;318786;-68
2024/03/01 10:29:00;;;;;;;8.17;4.27;;;;;;;;;;4399116;32;332677;-67
2024/03/01 10:31:41;;;;;;;12.40;5.60;;;;;;;;;;4402433;32;318074;-66
2024/03/01 10:34:16;;;;;;;9.33;4.97;;;;;;;;;;4412253;32;318223;-69
2024/03/01 10:36:50;;;;;;;8.73;4.10;;;;;;;;;;4400609;32;317296;-67
2024/03/01 10:39:22;;;;;;;8.03;4.43;;;;;;;;;;4411894;32;316928;-66
2024/03/01 10:42:02;;;;;;;8.67;4.97;;;;;;;;;;4399726;32;417976;-67
2024/03/01 10:44:37;;;;;;;6.20;4.53;;;;;;;;;;4402700;32;317576;-67
2024/03/01 10:47:16;;;;;;;7.32;4.40;;;;;;;;;;4412541;32;317475;-67
2024/03/01 10:49:51;;;;;;;11.07;5.00;;;;;;;;;;4401157;32;317467;-67
2024/03/01 10:52:19;;;;;;;9.47;5.03;;;;;;;;;;4411483;32;318391;-67
2024/03/01 10:54:51;;;;;;;5.62;4.00;;;;;;;;;;4394807;32;417090;-67
2024/03/01 10:57:20;;;;;;;7.87;4.57;;;;;;;;;;4411461;32;349961;-68
2024/03/01 10:59:52;;;;;;;7.00;3.72;;;;;;;;;;4399552;32;418173;-68
2024/03/01 11:02:25;;;;;;;10.40;4.20;;;;;;;;;;4411650;32;317654;-67
2024/03/01 11:05:02;;;;;;;9.00;4.22;;;;;;;;;;4397239;32;419156;-67
2024/03/01 11:07:40;;;;;;;8.07;3.57;;;;;;;;;;4401610;32;329972;-67
2024/03/01 11:10:15;;;;;;;6.67;3.13;;;;;;;;;;4411411;32;317265;-69
2024/03/01 11:12:50;;;;;;;5.60;4.20;;;;;;;;;;4400339;32;317237;-70
2024/03/01 11:15:18;;;;;;;7.30;3.60;;;;;;;;;;4412323;32;316677;-68
2024/03/01 11:17:50;;;;;;;7.43;3.50;;;;;;;;;;4402360;32;316616;-67
2024/03/01 11:20:21;;;;;;;5.57;3.47;;;;;;;;;;4411430;32;317729;-68
2024/03/01 11:23:02;;;;;;;6.00;3.50;;;;;;;;;;4397893;32;416584;-70
2024/03/01 11:25:37;;;;;;;11.53;4.30;;;;;;;;;;4404200;32;317687;-69
2024/03/01 11:28:05;;;;;;;12.90;5.13;;;;;;;;;;4411163;32;317714;-67
2024/03/01 11:30:38;;;;;;;10.67;5.17;;;;;;;;;;4400435;32;318370;-71
2024/03/01 11:33:08;;;;;;;6.43;4.10;;;;;;;;;;4413776;32;318472;-67
2024/03/01 11:35:39;;;;;;;7.47;4.27;;;;;;;;;;4404061;32;317521;-68
2024/03/01 11:38:23;;;;;;;7.35;3.95;;;;;;;;;;4414696;32;343777;-68
2024/03/01 11:41:01;;;;;;;7.07;4.15;;;;;;;;;;4400710;32;416390;-67
2024/03/01 11:43:40;;;;;;;14.33;4.57;;;;;;;;;;4404103;32;317460;-68
2024/03/01 11:46:52;;;;;;;14.40;6.30;;;;;;;;;;4414047;32;318278;-67
2024/03/01 11:49:28;;;;;;;8.75;4.90;;;;;;;;;;4412190;32;417993;-66
2024/03/01 11:52:16;;;;;;;10.20;5.30;;;;;;;;;;4401962;32;417117;-68
2024/03/01 11:54:57;;;;;;;15.77;7.13;;;;;;;;;;4401369;32;318541;-66
2024/03/01 11:57:34;;;;;;;10.77;5.23;;;;;;;;;;4403764;32;318646;-67
2024/03/01 12:00:11;;;;;;;14.63;7.17;;;;;;;;;;4414930;32;318297;-68
2024/03/01 12:02:54;;;;;;;11.07;5.32;;;;;;;;;;4402253;32;322476;-67
2024/03/01 12:05:25;;;;;;;7.63;4.67;;;;;;;;;;4413778;32;355700;-67
2024/03/01 12:08:24;;;;;;;9.40;4.73;;;;;;;;;;4400482;32;418602;-66
2024/03/01 12:11:00;;;;;;;7.40;4.43;;;;;;;;;;4398771;32;418424;-68
2024/03/01 12:13:32;;;;;;;9.47;5.10;;;;;;;;;;4404432;32;317811;-68
2024/03/01 12:16:06;;;;;;;10.73;6.22;;;;;;;;;;4414765;32;317325;-66
2024/03/01 12:18:40;;;;;;;9.83;5.97;;;;;;;;;;4400864;32;324447;-68
2024/03/01 12:21:26;;;;;;;13.37;5.67;;;;;;;;;;4413429;32;317661;-68
2024/03/01 12:24:06;;;;;;;10.73;5.77;;;;;;;;;;4400896;32;390122;-67
2024/03/01 12:26:50;;;;;;;10.60;5.60;;;;;;;;;;4402624;32;318752;-67
2024/03/01 12:29:28;;;;;;;11.30;6.23;;;;;;;;;;4413450;32;318315;-67
2024/03/01 12:32:09;;;;;;;26.73;12.77;;;;;;;;;;4400414;32;419860;-68
2024/03/01 12:34:53;;;;;;;19.10;8.83;;;;;;;;;;4401973;32;335519;-66
2024/03/01 12:37:50;;;;;;;12.57;7.33;;;;;;;;;;4414404;32;318381;-69
2024/03/01 12:40:18;;;;;;;9.23;5.63;;;;;;;;;;4410200;32;418569;-68
2024/03/01 12:43:07;;;;;;;13.50;6.30;;;;;;;;;;4401226;32;317629;-68
2024/03/01 12:45:49;;;;;;;10.17;5.67;;;;;;;;;;4402802;32;318306;-68
2024/03/01 12:48:21;;;;;;;16.60;5.60;;;;;;;;;;4413882;32;318291;-67
2024/03/01 12:51:03;;;;;;;9.00;5.47;;;;;;;;;;4399344;32;418224;-68
2024/03/01 12:54:01;;;;;;;14.40;5.70;;;;;;;;;;4404045;32;317644;-67
2024/03/01 12:56:34;;;;;;;13.43;6.57;;;;;;;;;;4404556;32;318869;-69
2024/03/01 12:59:40;;;;;;;17.00;8.63;;;;;;;;;;4413054;32;317603;-68
2024/03/01 13:02:25;;;;;;;8.10;5.43;;;;;;;;;;4392059;32;420204;-69
2024/03/01 13:05:06;;;;;;;11.10;7.28;;;;;;;;;;4398975;32;417871;-69
2024/03/01 13:07:35;;;;;;;11.60;5.37;;;;;;;;;;4403100;32;318682;-68
2024/03/01 13:10:04;;;;;;;6.60;5.03;;;;;;;;;;4414331;32;318497;-69
2024/03/01 13:12:37;;;;;;;13.90;4.97;;;;;;;;;;4401648;32;317512;-66
2024/03/01 13:15:14;;;;;;;21.10;5.37;;;;;;;;;;4412822;32;318565;-66
2024/03/01 13:17:48;;;;;;;10.90;6.70;;;;;;;;;;4403878;32;318817;-66
2024/03/01 13:20:32;;;;;;;14.77;5.93;;;;;;;;;;4413920;32;318239;-67
2024/03/01 13:23:10;;;;;;;10.27;6.90;;;;;;;;;;4400371;32;418896;-68
2024/03/01 13:25:54;;;;;;;11.90;7.47;;;;;;;;;;4404133;32;318561;-68
2024/03/01 13:28:24;;;;;;;12.50;7.10;;;;;;;;;;4411780;32;343877;-65
2024/03/01 13:30:51;;;;;;;9.73;7.47;;;;;;;;;;4397595;32;418779;-67
2024/03/01 13:33:34;;;;;;;15.87;8.93;;;;;;;;;;4413394;32;317361;-66
2024/03/01 13:36:09;;;;;;;15.53;9.07;;;;;;;;;;4399369;32;418427;-69
2024/03/01 13:38:49;;;;;;;15.40;10.37;;;;;;;;;;4401177;32;318737;-66
2024/03/01 13:41:26;;;;;;;10.73;6.23;;;;;;;;;;4413172;32;319475;-66
2024/03/01 13:44:03;;;;;;;12.63;7.47;;;;;;;;;;4400452;32;418536;-68
2024/03/01 13:46:37;;;;;;;17.37;9.73;;;;;;;;;;4402507;32;318452;-67
2024/03/01 13:49:07;;;;;;;14.70;8.80;;;;;;;;;;4413578;32;318436;-67
2024/03/01 13:51:37;;;;;;;14.13;7.73;;;;;;;;;;4403607;32;318534;-67
2024/03/01 13:54:05;;;;;;;31.23;11.37;;;;;;;;;;4413321;32;318330;-66
2024/03/01 13:56:34;;;;;;;16.80;8.13;;;;;;;;;;4401006;32;319823;-69
2024/03/01 13:59:01;;;;;;;15.10;8.17;;;;;;;;;;4413142;32;318267;-66
2024/03/01 14:01:29;;;;;;;10.87;6.90;;;;;;;;;;4403242;32;318278;-67
2024/03/01 14:03:58;;;;;;;9.57;6.27;;;;;;;;;;4412723;32;318386;-66
2024/03/01 14:06:25;;;;;;;17.77;9.53;;;;;;;;;;4401155;32;317311;-69
2024/03/01 14:08:55;;;;;;;16.83;10.70;;;;;;;;;;4409371;32;318237;-67
2024/03/01 14:11:22;;;;;;;17.77;10.10;;;;;;;;;;4402819;32;319275;-66
2024/03/01 14:13:51;;;;;;;14.53;6.80;;;;;;;;;;4412757;32;319424;-68
2024/03/01 14:16:18;;;;;;;9.83;6.77;;;;;;;;;;4411845;32;318356;-67
2024/03/01 14:18:47;;;;;;;10.17;5.90;;;;;;;;;;4399344;32;317447;-67
2024/03/01 14:21:14;;;;;;;11.40;7.23;;;;;;;;;;4413084;32;318705;-67
2024/03/01 14:23:41;;;;;;;17.50;7.83;;;;;;;;;;4400877;32;318341;-66
2024/03/01 14:26:10;;;;;;;14.47;9.10;;;;;;;;;;4412452;32;318209;-67
2024/03/01 14:28:37;;;;;;;18.37;9.60;;;;;;;;;;4399228;32;317446;-67
2024/03/01 14:31:06;;;;;;;17.87;10.23;;;;;;;;;;4410769;32;318453;-67
2024/03/01 14:33:34;;;;;;;26.90;11.17;;;;;;;;;;4400186;32;355126;-67
2024/03/01 14:36:05;;;;;;;16.60;7.87;;;;;;;;;;4412881;32;319515;-67
2024/03/01 14:38:32;;;;;;;16.33;9.00;;;;;;;;;;4401416;32;318794;-70